createdAt,value
2018-12-01T00:01:02.416Z,23.17
2018-12-01T00:03:35.256Z,21.37
2018-12-01T00:06:06.056Z,22.77
2018-12-01T00:08:36.375Z,23.00
2018-12-01T00:11:06.690Z,23.50
2018-12-01T00:13:36.980Z,23.80
2018-12-01T00:16:07.881Z,21.50
2018-12-01T00:18:38.127Z,22.90
2018-12-01T00:21:08.316Z,21.30
2018-12-01T00:23:39.060Z,21.90
2018-12-01T00:26:10.367Z,21.73
2018-12-01T00:28:41.078Z,21.47
2018-12-01T00:31:12.431Z,22.67
2018-12-01T00:33:43.694Z,22.63
2018-12-01T00:36:15.934Z,21.23
2018-12-01T00:38:47.461Z,20.30
2018-12-01T00:41:18.727Z,22.60
2018-12-01T00:43:48.958Z,23.10
2018-12-01T00:46:19.657Z,21.80
2018-12-01T00:48:50.214Z,22.60
2018-12-01T00:51:20.978Z,22.60
2018-12-01T00:53:51.698Z,21.07
2018-12-01T00:56:23.080Z,23.13
2018-12-01T00:58:53.154Z,23.37
2018-12-01T01:01:24.353Z,22.07
2018-12-01T01:03:54.571Z,22.43
2018-12-01T01:06:24.635Z,21.90
2018-12-01T01:08:55.025Z,22.30
2018-12-01T01:11:25.863Z,23.20
2018-12-01T01:13:56.595Z,23.23
2018-12-01T01:16:27.346Z,21.97
2018-12-01T01:18:57.951Z,21.27
2018-12-01T01:21:27.982Z,22.10
2018-12-01T01:23:59.251Z,22.50
2018-12-01T01:26:30.570Z,23.10
2018-12-01T01:29:02.517Z,22.50
2018-12-01T01:31:32.795Z,22.60
2018-12-01T01:34:02.791Z,22.70
2018-12-01T01:36:32.677Z,22.80
2018-12-01T01:39:03.864Z,21.20
2018-12-01T01:41:34.498Z,21.77
2018-12-01T01:44:04.684Z,22.57
2018-12-01T01:46:35.917Z,22.10
2018-12-01T01:49:06.986Z,20.30
2018-12-01T01:51:37.058Z,22.30
2018-12-01T01:54:08.288Z,23.47
2018-12-01T01:56:38.377Z,21.17
2018-12-01T01:59:08.658Z,21.10
2018-12-01T02:01:40.112Z,24.77
2018-12-01T02:04:10.220Z,22.33
2018-12-01T02:06:41.997Z,23.73
2018-12-01T02:09:12.176Z,23.80
2018-12-01T02:11:42.223Z,22.83
2018-12-01T02:14:12.854Z,24.10
2018-12-01T02:16:43.934Z,22.23
2018-12-01T02:19:15.378Z,23.30
2018-12-01T02:21:45.425Z,23.20
2018-12-01T02:24:15.498Z,22.13
2018-12-01T02:26:45.649Z,22.70
2018-12-01T02:29:17.295Z,22.53
2018-12-01T02:31:48.241Z,20.80
2018-12-01T02:34:18.357Z,22.23
2018-12-01T02:36:49.114Z,21.77
2018-12-01T02:39:19.730Z,23.70
2018-12-01T02:41:49.777Z,24.30
2018-12-01T02:44:36.774Z,23.43
2018-12-01T02:47:11.006Z,21.43
2018-12-01T02:49:41.708Z,22.60
2018-12-01T02:52:11.899Z,22.10
2018-12-01T02:54:43.080Z,21.60
2018-12-01T02:57:13.832Z,22.10
2018-12-01T02:59:44.454Z,22.00
2018-12-01T03:02:15.390Z,21.60
2018-12-01T03:04:46.243Z,22.47
2018-12-01T03:07:17.486Z,23.43
2018-12-01T03:09:47.631Z,23.10
2018-12-01T03:12:18.260Z,23.30
2018-12-01T03:14:48.357Z,22.63
2018-12-01T03:17:19.515Z,23.50
2018-12-01T03:19:51.278Z,24.40
2018-12-01T03:22:21.274Z,23.90
2018-12-01T03:24:52.661Z,23.97
2018-12-01T03:27:24.521Z,25.47
2018-12-01T03:29:55.246Z,23.30
2018-12-01T03:32:27.547Z,23.23
2018-12-01T03:34:57.647Z,25.60
2018-12-01T03:37:27.690Z,24.00
2018-12-01T03:39:58.506Z,25.70
2018-12-01T03:42:28.770Z,25.13
2018-12-01T03:44:59.474Z,24.17
2018-12-01T03:47:32.416Z,24.67
2018-12-01T03:50:03.117Z,22.60
2018-12-01T03:52:33.241Z,24.60
2018-12-01T03:55:04.594Z,23.80
2018-12-01T03:57:37.684Z,25.57
2018-12-01T04:00:08.831Z,23.10
2018-12-01T04:02:41.615Z,23.73
2018-12-01T04:05:12.941Z,24.60
2018-12-01T04:07:43.033Z,23.60
2018-12-01T04:10:14.445Z,23.30
2018-12-01T04:12:44.855Z,26.10
2018-12-01T04:15:15.133Z,21.70
2018-12-01T04:17:45.312Z,22.50
2018-12-01T04:20:16.774Z,22.63
2018-12-01T04:22:47.369Z,21.50
2018-12-01T04:25:17.578Z,22.27
2018-12-01T04:27:49.477Z,23.83
2018-12-01T04:30:23.649Z,23.00
2018-12-01T04:32:53.860Z,23.50
2018-12-01T04:35:25.577Z,22.73
2018-12-01T04:37:57.253Z,22.40
2018-12-01T04:40:27.935Z,22.70
2018-12-01T04:42:58.105Z,22.60
2018-12-01T04:45:28.206Z,23.20
2018-12-01T04:47:58.361Z,22.63
2018-12-01T04:50:29.724Z,21.13
2018-12-01T04:53:00.464Z,21.00
2018-12-01T04:55:30.575Z,21.00
2018-12-01T04:58:00.641Z,22.20
2018-12-01T05:00:30.790Z,20.60
2018-12-01T05:03:00.948Z,21.03
2018-12-01T05:05:33.101Z,19.57
2018-12-01T05:08:03.249Z,20.43
2018-12-01T05:10:33.911Z,19.57
2018-12-01T05:13:03.907Z,19.83
2018-12-01T05:15:35.055Z,20.97
2018-12-01T05:18:05.155Z,19.23
2018-12-01T05:20:35.996Z,20.53
2018-12-01T05:23:06.922Z,19.30
2018-12-01T05:25:37.571Z,19.33
2018-12-01T05:28:09.330Z,19.40
2018-12-01T05:30:40.171Z,19.70
2018-12-01T05:33:10.324Z,20.07
2018-12-01T05:35:41.134Z,18.07
2018-12-01T05:38:11.869Z,18.40
2018-12-01T05:40:43.241Z,20.53
2018-12-01T05:43:13.350Z,18.57
2018-12-01T05:45:44.009Z,18.10
2018-12-01T05:48:15.289Z,19.17
2018-12-01T05:50:45.952Z,18.93
2018-12-01T05:53:17.870Z,17.67
2018-12-01T05:55:48.769Z,18.90
2018-12-01T05:58:20.123Z,19.60
2018-12-01T06:00:51.682Z,18.37
2018-12-01T06:03:22.855Z,17.90
2018-12-01T06:05:52.850Z,19.07
2018-12-01T06:08:23.589Z,19.13
2018-12-01T06:10:55.867Z,19.00
2018-12-01T06:13:26.518Z,18.03
2018-12-01T06:15:58.446Z,18.93
2018-12-01T06:18:30.629Z,18.30
2018-12-01T06:21:01.342Z,20.00
2018-12-01T06:23:33.954Z,19.17
2018-12-01T06:26:04.098Z,20.47
2018-12-01T06:28:35.574Z,18.37
2018-12-01T06:31:06.370Z,18.43
2018-12-01T06:33:37.721Z,19.20
2018-12-01T06:36:07.946Z,19.90
2018-12-01T06:38:39.277Z,19.60
2018-12-01T06:41:10.963Z,19.30
2018-12-01T06:43:40.933Z,18.57
2018-12-01T06:46:11.077Z,19.43
2018-12-01T06:48:42.376Z,19.33
2018-12-01T06:51:13.731Z,20.07
2018-12-01T06:53:46.079Z,18.00
2018-12-01T06:56:18.473Z,18.80
2018-12-01T06:58:48.666Z,18.87
2018-12-01T07:01:20.158Z,19.43
2018-12-01T07:03:50.672Z,19.87
2018-12-01T07:06:20.773Z,20.17
2018-12-01T07:08:52.399Z,20.67
2018-12-01T07:11:23.147Z,18.60
2018-12-01T07:13:55.191Z,19.00
2018-12-01T07:16:26.488Z,18.90
2018-12-01T07:19:22.718Z,19.20
2018-12-01T07:21:53.994Z,18.00
2018-12-01T07:24:24.528Z,18.47
2018-12-01T07:26:56.149Z,18.80
2018-12-01T07:29:26.924Z,18.50
2018-12-01T07:31:57.048Z,19.17
2018-12-01T07:34:27.005Z,18.13
2018-12-01T07:36:58.911Z,18.07
2018-12-01T07:39:30.064Z,17.37
2018-12-01T07:42:00.262Z,18.40
2018-12-01T07:44:33.090Z,17.47
2018-12-01T07:47:04.544Z,18.73
2018-12-01T07:49:35.055Z,18.20
2018-12-01T07:52:05.377Z,18.60
2018-12-01T07:54:35.558Z,17.90
2018-12-01T07:57:06.801Z,17.77
2018-12-01T07:59:38.093Z,19.20
2018-12-01T08:02:08.226Z,18.30
2018-12-01T08:04:39.377Z,18.80
2018-12-01T08:07:10.378Z,15.33
2018-12-01T08:09:41.490Z,17.47
2018-12-01T08:12:12.102Z,16.40
2018-12-01T08:14:42.567Z,16.90
2018-12-01T08:17:13.599Z,16.40
2018-12-01T08:19:44.849Z,16.10
2018-12-01T08:22:15.678Z,17.13
2018-12-01T08:24:46.100Z,16.20
2018-12-01T08:27:17.578Z,17.07
2018-12-01T08:29:48.798Z,16.37
2018-12-01T08:32:19.643Z,17.10
2018-12-01T08:34:50.201Z,15.70
2018-12-01T08:37:20.880Z,17.00
2018-12-01T08:39:51.418Z,15.67
2018-12-01T08:42:23.214Z,17.20
2018-12-01T08:44:53.246Z,17.83
2018-12-01T08:47:23.764Z,16.00
2018-12-01T08:49:54.238Z,16.90
2018-12-01T08:52:25.534Z,17.90
2018-12-01T08:54:56.202Z,16.03
2018-12-01T08:57:27.414Z,16.33
2018-12-01T08:59:57.609Z,16.70
2018-12-01T09:02:27.763Z,16.57
2018-12-01T09:04:58.356Z,17.30
2018-12-01T09:07:30.173Z,17.37
2018-12-01T09:10:01.457Z,16.80
2018-12-01T09:12:31.568Z,18.23
2018-12-01T09:15:02.744Z,18.20
2018-12-01T09:17:34.478Z,16.63
2018-12-01T09:20:04.871Z,17.10
2018-12-01T09:22:34.992Z,16.40
2018-12-01T09:25:05.226Z,16.47
2018-12-01T09:27:35.996Z,17.17
2018-12-01T09:30:13.567Z,15.27
2018-12-01T09:32:45.426Z,14.43
2018-12-01T09:35:16.906Z,15.90
2018-12-01T09:37:48.521Z,14.53
2018-12-01T09:40:21.046Z,13.53
2018-12-01T09:42:52.191Z,12.80
2018-12-01T09:45:24.116Z,13.50
2018-12-01T09:47:55.567Z,13.23
2018-12-01T09:50:27.028Z,12.43
2018-12-01T09:52:58.231Z,10.83
2018-12-01T09:55:31.175Z,12.07
2018-12-01T09:58:01.767Z,11.90
2018-12-01T10:00:34.082Z,12.87
2018-12-01T10:03:07.592Z,10.90
2018-12-01T10:05:38.004Z,12.80
2018-12-01T10:08:08.571Z,11.00
2018-12-01T10:10:38.714Z,12.30
2018-12-01T10:13:08.809Z,9.90
2018-12-01T10:15:39.665Z,10.27
2018-12-01T10:18:10.782Z,10.40
2018-12-01T10:20:42.777Z,11.83
2018-12-01T10:23:14.139Z,10.87
2018-12-01T10:25:44.872Z,11.00
2018-12-01T10:28:15.497Z,11.00
2018-12-01T10:30:46.106Z,11.27
2018-12-01T10:33:16.744Z,11.53
2018-12-01T10:35:46.904Z,10.40
2018-12-01T10:38:18.280Z,10.23
2018-12-01T10:40:48.355Z,9.77
2018-12-01T10:43:18.492Z,10.07
2018-12-01T10:45:48.652Z,9.73
2018-12-01T10:48:18.801Z,8.07
2018-12-01T10:50:49.590Z,8.50
2018-12-01T10:53:20.175Z,8.67
2018-12-01T10:55:51.652Z,8.50
2018-12-01T10:58:22.466Z,8.37
2018-12-01T11:00:58.241Z,7.73
2018-12-01T11:03:35.074Z,8.93
2018-12-01T11:06:09.581Z,8.10
2018-12-01T11:08:39.753Z,8.40
2018-12-01T11:11:10.521Z,8.50
2018-12-01T11:13:41.450Z,6.73
2018-12-01T11:16:14.367Z,7.63
2018-12-01T11:18:44.502Z,6.90
2018-12-01T11:21:15.660Z,6.40
2018-12-01T11:23:46.473Z,6.07
2018-12-01T11:26:16.567Z,6.77
2018-12-01T11:28:47.673Z,6.07
2018-12-01T11:31:18.470Z,5.83
2018-12-01T11:33:51.400Z,5.33
2018-12-01T11:36:22.812Z,4.60
2018-12-01T11:38:54.258Z,4.90
2018-12-01T11:41:25.012Z,4.80
2018-12-01T11:43:56.290Z,4.63
2018-12-01T11:46:27.292Z,5.30
2018-12-01T11:48:58.238Z,4.70
2018-12-01T11:51:28.976Z,3.97
2018-12-01T11:53:59.779Z,4.23
2018-12-01T11:56:30.451Z,5.83
2018-12-01T11:59:02.521Z,4.77
2018-12-01T12:01:33.158Z,4.03
2018-12-01T12:04:05.165Z,4.03
2018-12-01T12:06:36.601Z,3.90
2018-12-01T12:09:09.458Z,4.67
2018-12-01T12:11:40.759Z,3.57
2018-12-01T12:14:12.250Z,3.87
2018-12-01T12:16:42.467Z,3.60
2018-12-01T12:19:12.598Z,3.63
2018-12-01T12:21:43.366Z,3.77
2018-12-01T12:24:14.198Z,4.17
2018-12-01T12:26:44.834Z,3.83
2018-12-01T12:29:16.385Z,3.87
2018-12-01T12:31:46.659Z,3.70
2018-12-01T12:34:16.914Z,3.17
2018-12-01T12:36:48.091Z,3.73
2018-12-01T12:39:19.722Z,3.07
2018-12-01T12:41:51.482Z,3.20
2018-12-01T12:44:22.836Z,2.73
2018-12-01T12:46:53.966Z,2.73
2018-12-01T12:49:25.564Z,3.00
2018-12-01T12:51:57.776Z,2.73
2018-12-01T12:54:28.473Z,5.50
2018-12-01T12:57:00.332Z,3.20
2018-12-01T12:59:31.042Z,2.77
2018-12-01T13:02:01.626Z,2.57
2018-12-01T13:04:32.262Z,2.40
2018-12-01T13:07:03.054Z,2.33
2018-12-01T13:09:33.919Z,2.63
2018-12-01T13:12:04.760Z,2.20
2018-12-01T13:14:34.757Z,2.77
2018-12-01T13:17:07.250Z,2.90
2018-12-01T13:19:37.469Z,2.73
2018-12-01T13:22:08.346Z,2.40
2018-12-01T13:24:40.387Z,2.37
2018-12-01T13:27:10.958Z,2.30
2018-12-01T13:29:41.632Z,2.97
2018-12-01T13:32:12.478Z,2.87
2018-12-01T13:34:43.770Z,2.40
2018-12-01T13:37:14.362Z,2.80
2018-12-01T13:39:45.203Z,2.07
2018-12-01T13:42:15.873Z,2.30
2018-12-01T13:44:46.179Z,2.37
2018-12-01T13:47:16.214Z,2.17
2018-12-01T13:49:47.128Z,2.50
2018-12-01T13:52:17.100Z,2.60
2018-12-01T13:54:47.354Z,5.40
2018-12-01T13:57:17.526Z,2.83
2018-12-01T13:59:50.209Z,4.40
2018-12-01T14:02:21.596Z,2.67
2018-12-01T14:04:53.071Z,2.50
2018-12-01T14:07:23.908Z,2.70
2018-12-01T14:09:54.591Z,3.37
2018-12-01T14:12:25.650Z,3.70
2018-12-01T14:14:56.715Z,3.17
2018-12-01T14:17:26.874Z,3.57
2018-12-01T14:19:57.185Z,3.60
2018-12-01T14:22:27.743Z,3.50
2018-12-01T14:24:57.974Z,3.57
2018-12-01T14:27:28.099Z,3.93
2018-12-01T14:29:59.057Z,4.40
2018-12-01T14:32:29.918Z,3.40
2018-12-01T14:35:00.097Z,2.80
2018-12-01T14:37:31.204Z,3.27
2018-12-01T14:40:02.001Z,3.10
2018-12-01T14:42:34.058Z,3.53
2018-12-01T14:45:06.774Z,4.20
2018-12-01T14:47:36.903Z,3.40
2018-12-01T14:50:10.698Z,3.30
2018-12-01T14:52:41.085Z,3.60
2018-12-01T14:55:16.599Z,3.60
2018-12-01T14:57:47.593Z,4.17
2018-12-01T15:00:24.950Z,4.43
2018-12-01T15:02:56.273Z,3.97
2018-12-01T15:05:27.381Z,3.80
2018-12-01T15:07:57.553Z,4.70
2018-12-01T15:10:29.149Z,3.80
2018-12-01T15:12:59.330Z,3.83
2018-12-01T15:15:30.886Z,4.60
2018-12-01T15:18:01.927Z,4.97
2018-12-01T15:20:32.133Z,5.17
2018-12-01T15:23:02.448Z,4.53
2018-12-01T15:25:33.177Z,4.93
2018-12-01T15:28:04.186Z,5.10
2018-12-01T15:30:34.977Z,4.83
2018-12-01T15:33:13.626Z,5.30
2018-12-01T15:35:45.784Z,4.60
2018-12-01T15:38:16.259Z,5.53
2018-12-01T15:40:52.767Z,5.20
2018-12-01T15:43:23.707Z,5.33
2018-12-01T15:45:53.909Z,4.40
2018-12-01T15:48:24.776Z,5.17
2018-12-01T15:50:56.824Z,5.33
2018-12-01T15:53:27.678Z,5.27
2018-12-01T15:55:58.392Z,4.80
2018-12-01T15:58:28.585Z,5.53
2018-12-01T16:01:01.098Z,5.27
2018-12-01T16:03:31.371Z,4.50
2018-12-01T16:06:02.445Z,5.63
2018-12-01T16:08:33.129Z,5.73
2018-12-01T16:11:03.325Z,5.17
2018-12-01T16:13:35.710Z,5.40
2018-12-01T16:16:10.546Z,5.70
2018-12-01T16:18:41.815Z,5.23
2018-12-01T16:21:12.686Z,4.60
2018-12-01T16:23:43.393Z,5.23
2018-12-01T16:26:14.022Z,5.07
2018-12-01T16:28:44.933Z,4.97
2018-12-01T16:31:16.731Z,5.90
2018-12-01T16:33:46.895Z,5.10
2018-12-01T16:36:17.269Z,4.77
2018-12-01T16:38:48.029Z,5.10
2018-12-01T16:41:30.440Z,5.20
2018-12-01T16:44:01.147Z,5.50
2018-12-01T16:46:31.405Z,6.03
2018-12-01T16:49:02.209Z,6.47
2018-12-01T16:51:33.172Z,6.17
2018-12-01T16:54:03.355Z,7.57
2018-12-01T16:56:33.710Z,6.63
2018-12-01T16:59:05.274Z,6.27
2018-12-01T17:01:35.405Z,7.33
2018-12-01T17:04:05.731Z,7.03
2018-12-01T17:06:36.481Z,7.50
2018-12-01T17:09:09.213Z,6.53
2018-12-01T17:11:39.436Z,7.00
2018-12-01T17:14:10.922Z,7.60
2018-12-01T17:16:41.779Z,7.40
2018-12-01T17:19:12.698Z,7.20
2018-12-01T17:21:43.455Z,8.00
2018-12-01T17:24:13.570Z,7.20
2018-12-01T17:26:44.119Z,7.27
2018-12-01T17:29:15.467Z,8.07
2018-12-01T17:31:46.267Z,9.20
2018-12-01T17:34:19.315Z,6.60
2018-12-01T17:36:50.911Z,6.60
2018-12-01T17:39:21.774Z,5.80
2018-12-01T17:41:52.139Z,6.43
2018-12-01T17:44:22.901Z,5.77
2018-12-01T17:46:53.027Z,6.30
2018-12-01T17:49:23.111Z,6.87
2018-12-01T17:51:53.289Z,6.57
2018-12-01T17:54:23.939Z,6.37
2018-12-01T17:56:53.992Z,6.63
2018-12-01T17:59:24.828Z,5.70
2018-12-01T18:01:56.137Z,5.60
2018-12-01T18:04:26.300Z,5.77
2018-12-01T18:06:57.230Z,5.80
2018-12-01T18:09:28.482Z,6.67
2018-12-01T18:12:00.469Z,6.47
2018-12-01T18:14:33.803Z,6.37
2018-12-01T18:17:04.929Z,5.90
2018-12-01T18:19:35.157Z,6.10
2018-12-01T18:22:06.486Z,5.90
2018-12-01T18:24:37.702Z,5.93
2018-12-01T18:27:08.253Z,6.20
2018-12-01T18:29:38.637Z,5.50
2018-12-01T18:32:08.837Z,6.60
2018-12-01T18:34:39.967Z,6.23
2018-12-01T18:37:11.164Z,6.40
2018-12-01T18:39:42.382Z,5.80
2018-12-01T18:42:12.644Z,5.77
2018-12-01T18:44:43.360Z,5.87
2018-12-01T18:47:14.386Z,5.97
2018-12-01T18:49:44.454Z,5.73
2018-12-01T18:52:14.742Z,5.83
2018-12-01T18:54:45.048Z,4.90
2018-12-01T18:57:15.801Z,5.20
2018-12-01T18:59:46.914Z,5.40
2018-12-01T19:02:19.006Z,4.90
2018-12-01T19:04:49.196Z,4.80
2018-12-01T19:07:20.936Z,5.43
2018-12-01T19:09:51.909Z,5.90
2018-12-01T19:12:23.872Z,5.63
2018-12-01T19:14:54.720Z,5.70
2018-12-01T19:17:26.051Z,6.03
2018-12-01T19:19:57.047Z,5.97
2018-12-01T19:22:27.746Z,5.70
2018-12-01T19:24:58.584Z,5.27
2018-12-01T19:27:30.348Z,5.47
2018-12-01T19:30:05.204Z,6.07
2018-12-01T19:32:33.853Z,5.73
2018-12-01T19:35:04.208Z,5.57
2018-12-01T19:37:35.263Z,8.00
2018-12-01T19:40:09.891Z,6.00
2018-12-01T19:42:40.759Z,6.73
2018-12-01T19:45:11.299Z,6.83
2018-12-01T19:47:42.754Z,5.60
2018-12-01T19:50:30.135Z,6.50
2018-12-01T19:53:00.378Z,7.27
2018-12-01T19:55:35.173Z,6.13
2018-12-01T19:58:13.363Z,6.23
2018-12-01T20:00:45.572Z,6.23
2018-12-01T20:03:19.687Z,5.77
2018-12-01T20:05:49.890Z,5.63
2018-12-01T20:08:21.449Z,5.80
2018-12-01T20:10:54.582Z,5.83
2018-12-01T20:13:37.042Z,5.60
2018-12-01T20:16:18.329Z,6.37
2018-12-01T20:18:48.429Z,5.63
2018-12-01T20:21:18.700Z,5.70
2018-12-01T20:23:49.850Z,6.07
2018-12-01T20:26:20.603Z,5.90
2018-12-01T20:28:51.338Z,5.80
2018-12-01T20:31:22.059Z,5.57
2018-12-01T20:33:54.214Z,6.90
2018-12-01T20:36:33.380Z,7.10
2018-12-01T20:39:17.807Z,6.50
2018-12-01T20:41:48.060Z,5.97
2018-12-01T20:44:18.590Z,5.87
2018-12-01T20:46:49.842Z,7.77
2018-12-01T20:49:21.558Z,6.37
2018-12-01T20:51:52.822Z,6.50
2018-12-01T20:54:37.345Z,5.90
2018-12-01T20:57:17.680Z,6.60
2018-12-01T20:59:48.045Z,7.90
2018-12-01T21:02:19.014Z,6.60
2018-12-01T21:04:49.251Z,8.60
2018-12-01T21:07:19.930Z,7.20
2018-12-01T21:09:50.789Z,6.40
2018-12-01T21:12:22.837Z,6.10
2018-12-01T21:14:54.196Z,7.40
2018-12-01T21:17:24.881Z,6.43
2018-12-01T21:19:56.977Z,11.23
2018-12-01T21:22:26.961Z,6.37
2018-12-01T21:24:57.693Z,6.40
2018-12-01T21:27:28.335Z,6.77
2018-12-01T21:30:00.281Z,6.23
2018-12-01T21:32:30.237Z,6.80
2018-12-01T21:35:01.349Z,6.20
2018-12-01T21:37:31.857Z,6.57
2018-12-01T21:40:01.991Z,6.40
2018-12-01T21:42:33.875Z,6.07
2018-12-01T21:45:04.488Z,5.93
2018-12-01T21:47:35.958Z,5.27
2018-12-01T21:50:08.724Z,5.73
2018-12-01T21:52:40.075Z,5.60
2018-12-01T21:55:11.974Z,5.67
2018-12-01T21:57:43.680Z,7.07
2018-12-01T22:00:17.023Z,6.33
2018-12-01T22:02:49.318Z,5.50
2018-12-01T22:05:21.525Z,6.17
2018-12-01T22:07:52.382Z,5.70
2018-12-01T22:10:23.860Z,5.17
2018-12-01T22:12:54.725Z,5.17
2018-12-01T22:15:25.310Z,4.50
2018-12-01T22:17:55.894Z,4.60
2018-12-01T22:20:27.264Z,4.83
2018-12-01T22:22:57.942Z,4.40
2018-12-01T22:25:28.173Z,5.20
2018-12-01T22:27:59.011Z,4.43
2018-12-01T22:30:29.866Z,4.17
2018-12-01T22:33:01.021Z,4.57
2018-12-01T22:35:32.130Z,4.17
2018-12-01T22:38:03.004Z,3.80
2018-12-01T22:40:34.897Z,3.60
2018-12-01T22:43:11.185Z,4.17
2018-12-01T22:45:42.076Z,3.80
2018-12-01T22:48:17.227Z,3.43
2018-12-01T22:50:49.787Z,3.73
2018-12-01T22:53:19.914Z,3.97
2018-12-01T22:55:50.221Z,3.67
2018-12-01T22:58:22.166Z,4.07
2018-12-01T23:00:57.624Z,3.97
2018-12-01T23:03:30.334Z,3.50
2018-12-01T23:06:01.441Z,3.20
2018-12-01T23:08:31.666Z,3.33
2018-12-01T23:11:01.866Z,3.37
2018-12-01T23:13:32.771Z,3.27
2018-12-01T23:16:04.433Z,2.97
2018-12-01T23:18:35.180Z,2.80
2018-12-01T23:21:06.406Z,2.57
2018-12-01T23:23:37.104Z,3.07
2018-12-01T23:26:07.890Z,2.70
2018-12-01T23:28:38.598Z,2.73
2018-12-01T23:31:08.728Z,2.73
2018-12-01T23:33:38.887Z,2.57
2018-12-01T23:36:09.474Z,2.63
2018-12-01T23:38:40.283Z,3.50
2018-12-01T23:41:10.783Z,2.47
2018-12-01T23:43:42.533Z,2.30
2018-12-01T23:46:12.623Z,2.53
2018-12-01T23:48:43.889Z,2.57
2018-12-01T23:51:14.103Z,2.60
2018-12-01T23:53:44.189Z,2.17
2018-12-01T23:56:14.233Z,2.43
2018-12-01T23:58:44.420Z,2.70
